createdAt,value
2018-01-25T00:00:02.127Z,2.53
2018-01-25T00:02:29.711Z,2.87
2018-01-25T00:04:57.314Z,2.20
2018-01-25T00:07:24.930Z,3.03
2018-01-25T00:09:52.585Z,3.55
2018-01-25T00:12:20.215Z,3.27
2018-01-25T00:14:47.867Z,2.67
2018-01-25T00:17:15.481Z,3.03
2018-01-25T00:19:43.107Z,3.40
2018-01-25T00:22:10.771Z,2.90
2018-01-25T00:24:38.376Z,3.35
2018-01-25T00:27:06.734Z,2.65
2018-01-25T00:29:34.351Z,5.00
2018-01-25T00:32:01.983Z,2.77
2018-01-25T00:34:30.326Z,4.23
2018-01-25T00:36:57.932Z,2.37
2018-01-25T00:39:25.538Z,3.13
2018-01-25T00:41:53.156Z,3.47
2018-01-25T00:44:20.755Z,3.10
2018-01-25T00:46:48.335Z,4.15
2018-01-25T00:49:15.982Z,2.65
2018-01-25T00:51:43.582Z,2.60
2018-01-25T00:54:11.974Z,4.65
2018-01-25T00:56:39.593Z,2.53
2018-01-25T00:59:07.175Z,5.15
2018-01-25T01:01:34.791Z,3.10
2018-01-25T01:04:02.467Z,2.72
2018-01-25T01:06:30.088Z,2.85
2018-01-25T01:08:57.679Z,3.00
2018-01-25T01:11:25.282Z,2.90
2018-01-25T01:13:52.896Z,3.53
2018-01-25T01:16:20.545Z,2.93
2018-01-25T01:18:48.158Z,3.08
2018-01-25T01:21:16.562Z,2.70
2018-01-25T01:23:44.140Z,3.73
2018-01-25T01:26:11.737Z,2.80
2018-01-25T01:28:39.344Z,3.07
2018-01-25T01:31:06.964Z,2.33
2018-01-25T01:33:34.569Z,3.20
2018-01-25T01:36:02.188Z,3.20
2018-01-25T01:38:29.778Z,2.57
2018-01-25T01:40:57.325Z,2.67
2018-01-25T01:43:24.950Z,3.20
2018-01-25T01:45:52.538Z,2.77
2018-01-25T01:48:20.146Z,3.30
2018-01-25T01:50:47.801Z,2.50
2018-01-25T01:53:15.378Z,3.13
2018-01-25T01:55:42.952Z,6.30
2018-01-25T01:58:10.626Z,3.07
2018-01-25T02:00:38.216Z,2.53
2018-01-25T02:03:05.802Z,3.03
2018-01-25T02:05:33.374Z,3.17
2018-01-25T02:08:00.966Z,3.95
2018-01-25T02:10:28.624Z,2.17
2018-01-25T02:12:56.235Z,3.30
2018-01-25T02:15:23.876Z,3.33
2018-01-25T02:17:52.294Z,4.32
2018-01-25T02:20:19.847Z,2.40
2018-01-25T02:22:47.463Z,2.83
2018-01-25T02:25:15.059Z,3.43
2018-01-25T02:27:42.657Z,6.80
2018-01-25T02:30:10.283Z,2.80
2018-01-25T02:32:37.893Z,3.00
2018-01-25T02:35:05.540Z,2.77
2018-01-25T02:37:33.175Z,2.47
2018-01-25T02:40:00.797Z,3.42
2018-01-25T02:42:28.418Z,2.80
2018-01-25T02:44:56.013Z,3.95
2018-01-25T02:47:23.579Z,2.95
2018-01-25T02:49:51.203Z,2.67
2018-01-25T02:52:18.817Z,3.45
2018-01-25T02:54:46.436Z,5.73
2018-01-25T02:57:14.059Z,3.10
2018-01-25T02:59:41.675Z,3.93
2018-01-25T03:02:09.283Z,3.20
2018-01-25T03:04:36.894Z,2.70
2018-01-25T03:07:05.305Z,2.95
2018-01-25T03:09:32.898Z,2.67
2018-01-25T03:12:00.500Z,4.87
2018-01-25T03:14:28.167Z,3.60
2018-01-25T03:16:56.559Z,3.17
2018-01-25T03:19:24.203Z,2.60
2018-01-25T03:21:51.809Z,3.63
2018-01-25T03:24:19.419Z,3.80
2018-01-25T03:26:47.779Z,4.23
2018-01-25T03:29:15.395Z,4.33
2018-01-25T03:31:42.991Z,2.97
2018-01-25T03:34:10.611Z,5.00
2018-01-25T03:36:38.200Z,3.10
2018-01-25T03:39:05.815Z,3.13
2018-01-25T03:41:34.195Z,3.20
2018-01-25T03:44:01.822Z,3.37
2018-01-25T03:46:30.231Z,4.33
2018-01-25T03:48:57.852Z,4.47
2018-01-25T03:51:25.493Z,3.13
2018-01-25T03:53:53.144Z,3.50
2018-01-25T03:56:20.730Z,3.53
2018-01-25T03:58:48.364Z,4.60
2018-01-25T04:01:15.958Z,3.13
2018-01-25T04:03:43.571Z,4.67
2018-01-25T04:06:11.153Z,3.40
2018-01-25T04:08:38.818Z,3.30
2018-01-25T04:11:06.442Z,3.60
2018-01-25T04:13:34.015Z,3.13
2018-01-25T04:16:01.622Z,3.33
2018-01-25T04:18:29.264Z,4.70
2018-01-25T04:20:56.916Z,5.28
2018-01-25T04:23:24.562Z,6.18
2018-01-25T04:25:52.162Z,4.20
2018-01-25T04:28:20.074Z,4.28
2018-01-25T04:30:47.716Z,4.47
2018-01-25T04:33:15.287Z,3.93
2018-01-25T04:35:42.888Z,4.60
2018-01-25T04:38:10.512Z,3.97
2018-01-25T04:40:38.119Z,3.13
2018-01-25T04:43:05.747Z,4.15
2018-01-25T04:45:33.392Z,4.77
2018-01-25T04:48:00.979Z,4.47
2018-01-25T04:50:28.555Z,5.90
2018-01-25T04:52:56.166Z,4.20
2018-01-25T04:55:23.726Z,3.80
2018-01-25T04:57:51.322Z,4.30
2018-01-25T05:00:18.898Z,6.03
2018-01-25T05:02:46.559Z,3.65
2018-01-25T05:05:14.234Z,4.57
2018-01-25T05:07:41.830Z,4.70
2018-01-25T05:10:09.450Z,3.25
2018-01-25T05:12:37.066Z,4.30
2018-01-25T05:15:04.675Z,4.30
2018-01-25T05:17:34.740Z,4.20
2018-01-25T05:20:02.310Z,4.50
2018-01-25T05:22:29.882Z,4.72
2018-01-25T05:24:57.467Z,4.18
2018-01-25T05:27:25.051Z,4.47
2018-01-25T05:29:53.392Z,5.28
2018-01-25T05:32:20.970Z,4.32
2018-01-25T05:34:48.557Z,5.12
2018-01-25T05:37:16.929Z,6.12
2018-01-25T05:39:45.326Z,7.50
2018-01-25T05:42:12.900Z,4.65
2018-01-25T05:44:40.526Z,4.93
2018-01-25T05:47:08.900Z,4.12
2018-01-25T05:49:36.491Z,4.45
2018-01-25T05:52:04.116Z,4.68
2018-01-25T05:54:31.710Z,5.70
2018-01-25T05:56:59.315Z,4.57
2018-01-25T05:59:26.950Z,5.68
2018-01-25T06:01:54.565Z,7.47
2018-01-25T06:04:22.162Z,5.78
2018-01-25T06:06:49.723Z,4.37
2018-01-25T06:09:17.334Z,3.95
2018-01-25T06:11:44.886Z,6.30
2018-01-25T06:14:12.514Z,3.75
2018-01-25T06:16:40.081Z,4.30
2018-01-25T06:19:07.692Z,3.72
2018-01-25T06:21:36.057Z,3.83
2018-01-25T06:24:03.645Z,7.72
2018-01-25T06:26:31.282Z,3.80
2018-01-25T06:28:58.855Z,5.63
2018-01-25T06:31:27.235Z,4.67
2018-01-25T06:33:55.613Z,4.90
2018-01-25T06:36:23.989Z,4.90
2018-01-25T06:38:52.367Z,6.00
2018-01-25T06:41:20.710Z,3.40
2018-01-25T06:43:48.314Z,6.93
2018-01-25T06:46:16.741Z,4.30
2018-01-25T06:48:44.326Z,6.50
2018-01-25T06:51:11.915Z,7.97
2018-01-25T06:53:39.510Z,7.67
2018-01-25T06:56:07.093Z,6.40
2018-01-25T06:58:34.687Z,5.40
2018-01-25T07:01:03.026Z,4.80
2018-01-25T07:03:30.632Z,7.10
2018-01-25T07:05:59.018Z,4.73
2018-01-25T07:08:27.352Z,6.57
2018-01-25T07:10:54.955Z,4.78
2018-01-25T07:13:23.283Z,6.53
2018-01-25T07:15:50.846Z,4.20
2018-01-25T07:18:18.449Z,3.13
2018-01-25T07:20:46.030Z,3.37
2018-01-25T07:23:13.630Z,5.00
2018-01-25T07:25:41.248Z,5.90
2018-01-25T07:28:08.822Z,3.17
2018-01-25T07:30:36.437Z,3.53
2018-01-25T07:33:04.792Z,5.10
2018-01-25T07:35:32.394Z,4.40
2018-01-25T07:38:00.019Z,5.43
2018-01-25T07:40:27.606Z,5.17
2018-01-25T07:42:55.924Z,3.20
2018-01-25T07:45:23.520Z,3.83
2018-01-25T07:47:51.134Z,5.87
2018-01-25T07:50:18.749Z,4.27
2018-01-25T07:52:46.391Z,5.43
2018-01-25T07:55:13.990Z,3.00
2018-01-25T07:57:47.236Z,4.67
2018-01-25T08:00:14.813Z,10.40
2018-01-25T08:02:42.417Z,3.30
2018-01-25T08:05:09.970Z,3.43
2018-01-25T08:07:37.533Z,6.00
2018-01-25T08:10:05.098Z,6.93
2018-01-25T08:12:32.706Z,3.70
2018-01-25T08:15:00.292Z,3.70
2018-01-25T08:17:28.624Z,5.00
2018-01-25T08:19:56.256Z,3.50
2018-01-25T08:22:24.626Z,7.60
2018-01-25T08:24:52.210Z,4.80
2018-01-25T08:27:19.826Z,8.43
2018-01-25T08:29:48.180Z,8.10
2018-01-25T08:32:15.786Z,4.53
2018-01-25T08:34:43.359Z,8.00
2018-01-25T08:37:10.956Z,7.03
2018-01-25T08:39:38.559Z,11.80
2018-01-25T08:42:06.171Z,8.90
2018-01-25T08:44:33.766Z,6.10
2018-01-25T08:47:02.157Z,5.00
2018-01-25T08:49:29.737Z,8.53
2018-01-25T08:51:57.370Z,6.97
2018-01-25T08:54:25.694Z,3.90
2018-01-25T08:56:53.254Z,6.10
2018-01-25T08:59:20.808Z,8.57
2018-01-25T09:01:48.446Z,7.00
2018-01-25T09:04:16.036Z,6.33
2018-01-25T09:06:43.644Z,4.73
2018-01-25T09:09:12.039Z,4.77
2018-01-25T09:11:39.607Z,7.77
2018-01-25T09:14:07.223Z,8.10
2018-01-25T09:16:34.814Z,3.97
2018-01-25T09:19:02.442Z,5.87
2018-01-25T09:21:30.039Z,6.67
2018-01-25T09:23:57.775Z,4.17
2018-01-25T09:26:26.114Z,5.03
2018-01-25T09:28:53.726Z,7.30
2018-01-25T09:31:22.070Z,4.30
2018-01-25T09:33:49.689Z,4.37
2018-01-25T09:36:17.333Z,6.10
2018-01-25T09:38:44.906Z,6.10
2018-01-25T09:41:12.526Z,3.73
2018-01-25T09:43:40.102Z,5.10
2018-01-25T09:46:08.427Z,5.10
2018-01-25T09:48:36.003Z,6.37
2018-01-25T09:51:03.652Z,10.10
2018-01-25T09:53:31.245Z,7.53
2018-01-25T09:55:58.833Z,5.97
2018-01-25T09:58:26.455Z,5.03
2018-01-25T10:00:54.118Z,4.73
2018-01-25T10:03:21.706Z,3.73
2018-01-25T10:05:49.304Z,6.70
2018-01-25T10:08:16.896Z,4.37
2018-01-25T10:10:44.513Z,4.83
2018-01-25T10:13:12.136Z,4.43
2018-01-25T10:15:39.734Z,3.40
2018-01-25T10:18:07.296Z,2.97
2018-01-25T10:20:34.910Z,3.80
2018-01-25T10:23:02.473Z,5.00
2018-01-25T10:25:30.036Z,3.73
2018-01-25T10:27:58.437Z,5.90
2018-01-25T10:30:26.036Z,4.67
2018-01-25T10:32:53.655Z,5.40
2018-01-25T10:35:21.986Z,3.50
2018-01-25T10:37:49.623Z,4.93
2018-01-25T10:40:17.195Z,9.30
2018-01-25T10:42:44.775Z,4.30
2018-01-25T10:45:12.380Z,5.60
2018-01-25T10:47:39.933Z,8.07
2018-01-25T10:50:07.525Z,8.87
2018-01-25T10:52:35.145Z,5.30
2018-01-25T10:55:03.524Z,4.50
2018-01-25T10:57:31.124Z,4.60
2018-01-25T10:59:58.712Z,4.20
2018-01-25T11:02:26.345Z,5.53
2018-01-25T11:04:53.939Z,4.07
2018-01-25T11:07:21.533Z,5.57
2018-01-25T11:09:49.114Z,7.83
2018-01-25T11:12:16.733Z,5.10
2018-01-25T11:14:45.090Z,4.07
2018-01-25T11:17:12.684Z,3.70
2018-01-25T11:19:40.266Z,6.80
2018-01-25T11:22:07.894Z,4.07
2018-01-25T11:24:36.230Z,4.20
2018-01-25T11:27:03.843Z,4.30
2018-01-25T11:29:31.490Z,4.47
2018-01-25T11:31:59.799Z,4.40
2018-01-25T11:34:28.122Z,8.17
2018-01-25T11:36:55.705Z,3.50
2018-01-25T11:39:24.095Z,4.10
2018-01-25T11:41:52.422Z,4.13
2018-01-25T11:44:20.001Z,5.23
2018-01-25T11:46:47.634Z,4.67
2018-01-25T11:49:15.199Z,4.70
2018-01-25T11:51:42.779Z,4.30
2018-01-25T11:54:10.367Z,5.83
2018-01-25T11:56:38.774Z,6.30
2018-01-25T11:59:06.400Z,5.80
2018-01-25T12:01:34.789Z,4.53
2018-01-25T12:04:03.171Z,6.23
2018-01-25T12:06:30.797Z,5.30
2018-01-25T12:08:58.437Z,7.40
2018-01-25T12:11:26.085Z,6.00
2018-01-25T12:13:53.682Z,7.10
2018-01-25T12:16:21.304Z,14.07
2018-01-25T12:18:48.854Z,8.03
2018-01-25T12:21:16.428Z,8.47
2018-01-25T12:23:44.032Z,5.37
2018-01-25T12:26:12.340Z,7.80
2018-01-25T12:28:39.951Z,5.37
2018-01-25T12:31:07.555Z,4.77
2018-01-25T12:33:35.194Z,10.80
2018-01-25T12:36:02.831Z,6.80
2018-01-25T12:38:30.451Z,5.87
2018-01-25T12:40:58.066Z,5.70
2018-01-25T12:43:25.643Z,9.77
2018-01-25T12:45:53.990Z,7.20
2018-01-25T12:48:21.563Z,7.10
2018-01-25T12:50:49.207Z,4.40
2018-01-25T12:53:16.832Z,6.80
2018-01-25T12:55:44.422Z,5.77
2018-01-25T12:58:12.046Z,5.07
2018-01-25T13:00:39.645Z,10.53
2018-01-25T13:03:07.222Z,4.60
2018-01-25T13:05:34.870Z,5.40
2018-01-25T13:08:02.414Z,6.93
2018-01-25T13:10:30.068Z,9.13
2018-01-25T13:12:57.873Z,9.10
2018-01-25T13:15:25.486Z,10.10
2018-01-25T13:17:53.042Z,7.97
2018-01-25T13:20:21.448Z,5.13
2018-01-25T13:22:49.101Z,6.83
2018-01-25T13:25:16.718Z,4.40
2018-01-25T13:27:44.358Z,4.83
2018-01-25T13:30:12.798Z,5.87
2018-01-25T13:32:40.415Z,4.77
2018-01-25T13:35:08.812Z,3.60
2018-01-25T13:37:36.366Z,4.57
2018-01-25T13:40:03.988Z,4.00
2018-01-25T13:42:31.586Z,9.57
2018-01-25T13:44:59.194Z,8.13
2018-01-25T13:47:26.773Z,10.67
2018-01-25T13:49:54.376Z,9.47
2018-01-25T13:52:27.557Z,5.23
2018-01-25T13:54:55.171Z,3.70
2018-01-25T13:57:22.731Z,3.93
2018-01-25T13:59:50.361Z,4.53
2018-01-25T14:02:17.928Z,6.10
2018-01-25T14:04:45.539Z,3.60
2018-01-25T14:07:13.132Z,8.80
2018-01-25T14:09:40.786Z,5.73
2018-01-25T14:12:08.386Z,8.10
2018-01-25T14:14:35.994Z,4.10
2018-01-25T14:17:04.418Z,5.60
2018-01-25T14:19:32.009Z,4.53
2018-01-25T14:21:59.579Z,4.40
2018-01-25T14:24:27.956Z,5.80
2018-01-25T14:26:56.332Z,5.57
2018-01-25T14:29:23.905Z,4.40
2018-01-25T14:31:52.296Z,6.30
2018-01-25T14:34:19.891Z,8.27
2018-01-25T14:36:47.492Z,5.63
2018-01-25T14:39:15.866Z,7.47
2018-01-25T14:41:43.477Z,4.50
2018-01-25T14:44:11.082Z,4.20
2018-01-25T14:46:38.669Z,4.10
2018-01-25T14:49:06.295Z,4.70
2018-01-25T14:51:33.881Z,5.60
2018-01-25T14:54:02.284Z,4.30
2018-01-25T14:56:29.874Z,5.23
2018-01-25T14:58:57.512Z,4.80
2018-01-25T15:01:25.080Z,3.40
2018-01-25T15:03:53.420Z,7.23
2018-01-25T15:06:21.772Z,4.97
2018-01-25T15:08:50.202Z,4.97
2018-01-25T15:11:17.840Z,6.60
2018-01-25T15:13:46.210Z,4.40
2018-01-25T15:16:14.650Z,5.27
2018-01-25T15:18:42.198Z,5.23
2018-01-25T15:21:09.864Z,5.13
2018-01-25T15:23:37.438Z,4.77
2018-01-25T15:27:44.711Z,8.23
2018-01-25T15:30:12.343Z,5.15
2018-01-25T15:32:39.933Z,3.97
2018-01-25T15:35:08.334Z,7.30
2018-01-25T15:37:35.967Z,6.10
2018-01-25T15:40:03.608Z,6.43
2018-01-25T15:42:31.221Z,6.10
2018-01-25T15:44:58.861Z,6.67
2018-01-25T15:47:26.500Z,9.67
2018-01-25T15:49:55.035Z,8.57
2018-01-25T15:52:23.636Z,7.90
2018-01-25T15:54:51.956Z,8.77
2018-01-25T15:57:19.584Z,8.00
2018-01-25T15:59:47.155Z,12.27
2018-01-25T16:02:14.748Z,8.27
2018-01-25T16:04:42.402Z,11.50
2018-01-25T16:07:10.048Z,12.50
2018-01-25T16:09:37.667Z,9.37
2018-01-25T16:12:32.265Z,9.93
2018-01-25T16:14:59.923Z,12.80
2018-01-25T16:17:28.298Z,8.37
2018-01-25T16:19:57.961Z,12.50
2018-01-25T16:22:25.582Z,10.30
2018-01-25T16:24:53.962Z,10.00
2018-01-25T16:27:21.554Z,14.40
2018-01-25T16:29:55.819Z,9.17
2018-01-25T16:32:23.442Z,10.17
2018-01-25T16:34:51.030Z,10.47
2018-01-25T16:37:18.639Z,8.93
2018-01-25T16:39:46.240Z,9.00
2018-01-25T16:42:13.872Z,7.63
2018-01-25T16:44:41.475Z,10.47
2018-01-25T16:47:22.012Z,9.47
2018-01-25T16:49:49.568Z,8.63
2018-01-25T16:52:17.164Z,10.50
2018-01-25T16:54:44.767Z,9.67
2018-01-25T16:57:12.318Z,12.20
2018-01-25T16:59:39.877Z,16.40
2018-01-25T17:02:07.477Z,14.70
2018-01-25T17:04:35.087Z,13.40
2018-01-25T17:07:02.662Z,12.60
2018-01-25T17:09:30.222Z,13.83
2018-01-25T17:11:57.787Z,13.67
2018-01-25T17:14:25.383Z,13.80
2018-01-25T17:16:52.942Z,12.77
2018-01-25T17:19:24.759Z,16.67
2018-01-25T17:21:52.360Z,14.40
2018-01-25T17:24:19.942Z,13.30
2018-01-25T17:26:48.287Z,14.60
2018-01-25T17:29:19.544Z,11.93
2018-01-25T17:31:47.132Z,11.77
2018-01-25T17:37:08.942Z,17.77
2018-01-25T17:39:36.559Z,14.18
2018-01-25T17:42:04.205Z,16.43
2018-01-25T17:44:32.576Z,15.63
2018-01-25T17:47:00.951Z,14.40
2018-01-25T17:49:29.335Z,11.63
2018-01-25T17:51:57.752Z,17.50
2018-01-25T17:54:26.100Z,26.70
2018-01-25T17:57:03.843Z,14.73
2018-01-25T17:59:31.420Z,20.03
2018-01-25T18:01:59.007Z,15.23
2018-01-25T18:04:27.410Z,20.33
2018-01-25T18:06:55.033Z,16.33
2018-01-25T18:09:22.647Z,23.27
2018-01-25T18:11:50.270Z,20.65
2018-01-25T18:14:18.623Z,34.83
2018-01-25T18:16:46.282Z,23.02
2018-01-25T18:19:13.924Z,20.60
2018-01-25T18:21:41.567Z,17.00
2018-01-25T18:24:09.224Z,18.80
2018-01-25T18:26:36.838Z,18.08
2018-01-25T18:29:05.231Z,23.12
2018-01-25T18:31:32.818Z,14.83
2018-01-25T18:34:00.433Z,13.55
2018-01-25T18:36:28.078Z,14.57
2018-01-25T18:38:55.659Z,27.95
2018-01-25T18:41:23.528Z,15.75
2018-01-25T18:43:51.111Z,13.32
2018-01-25T18:46:18.711Z,16.50
2018-01-25T18:48:46.381Z,12.20
2018-01-25T18:51:13.982Z,19.73
2018-01-25T18:53:42.377Z,14.73
2018-01-25T18:56:10.000Z,13.90
2018-01-25T18:58:37.626Z,11.88
2018-01-25T19:01:05.340Z,16.53
2018-01-25T19:03:33.746Z,11.80
2018-01-25T19:06:01.393Z,19.43
2018-01-25T19:08:29.092Z,14.27
2018-01-25T19:10:56.747Z,16.65
2018-01-25T19:13:24.414Z,16.13
2018-01-25T19:15:52.024Z,13.83
2018-01-25T19:18:19.667Z,11.20
2018-01-25T19:20:47.296Z,13.70
2018-01-25T19:23:18.304Z,12.80
2018-01-25T19:25:46.701Z,11.47
2018-01-25T19:28:14.346Z,13.53
2018-01-25T19:30:44.582Z,11.83
2018-01-25T19:33:12.663Z,11.47
2018-01-25T19:35:40.236Z,11.30
2018-01-25T19:38:07.885Z,15.00
2018-01-25T19:40:35.547Z,19.33
2018-01-25T19:43:03.228Z,41.90
2018-01-25T19:45:30.886Z,114.00
2018-01-25T19:47:58.521Z,57.13
2018-01-25T19:50:26.158Z,42.83
2018-01-25T19:52:54.527Z,26.97
2018-01-25T19:55:22.172Z,38.70
2018-01-25T19:57:49.977Z,168.80
2018-01-25T20:00:17.609Z,99.70
2018-01-25T20:02:45.237Z,80.30
2018-01-25T20:05:12.820Z,49.03
2018-01-25T20:07:40.431Z,24.33
2018-01-25T20:10:08.125Z,21.90
2018-01-25T20:12:35.743Z,20.27
2018-01-25T20:15:03.393Z,21.20
2018-01-25T20:17:31.049Z,18.45
2018-01-25T20:19:58.743Z,21.13
2018-01-25T20:22:26.456Z,19.33
2018-01-25T20:24:54.113Z,19.90
2018-01-25T20:27:21.775Z,21.83
2018-01-25T20:29:49.384Z,20.50
2018-01-25T20:32:17.088Z,20.40
2018-01-25T20:34:52.925Z,17.25
2018-01-25T20:37:20.567Z,18.10
2018-01-25T20:39:48.173Z,26.60
2018-01-25T20:42:15.782Z,21.83
2018-01-25T20:44:43.465Z,28.95
2018-01-25T20:47:11.068Z,21.00
2018-01-25T20:49:38.690Z,24.98
2018-01-25T20:52:06.363Z,33.10
2018-01-25T20:54:34.032Z,29.02
2018-01-25T20:57:01.643Z,26.05
2018-01-25T20:59:29.306Z,22.52
2018-01-25T21:01:57.003Z,19.90
2018-01-25T21:04:24.679Z,16.27
2018-01-25T21:06:53.313Z,12.85
2018-01-25T21:09:21.000Z,13.88
2018-01-25T21:11:48.636Z,12.68
2018-01-25T21:14:16.293Z,14.73
2018-01-25T21:16:43.956Z,14.95
2018-01-25T21:19:11.597Z,16.37
2018-01-25T21:21:39.629Z,15.85
2018-01-25T21:24:07.339Z,13.80
2018-01-25T21:26:35.794Z,14.60
2018-01-25T21:29:03.447Z,12.25
2018-01-25T21:31:31.069Z,14.60
2018-01-25T21:33:59.483Z,15.25
2018-01-25T21:36:27.127Z,21.83
2018-01-25T21:38:54.780Z,23.33
2018-01-25T21:41:22.405Z,27.10
2018-01-25T21:43:50.056Z,15.98
2018-01-25T21:46:18.508Z,19.73
2018-01-25T21:48:46.174Z,24.45
2018-01-25T21:51:13.833Z,20.15
2018-01-25T21:53:41.508Z,30.77
2018-01-25T21:56:09.927Z,20.17
2018-01-25T21:58:37.577Z,16.20
2018-01-25T22:01:05.223Z,22.85
2018-01-25T22:03:33.686Z,44.47
2018-01-25T22:06:01.365Z,34.92
2018-01-25T22:08:29.802Z,31.70
2018-01-25T22:10:57.428Z,37.50
2018-01-25T22:13:25.090Z,40.53
2018-01-25T22:15:52.725Z,27.33
2018-01-25T22:18:21.151Z,24.17
2018-01-25T22:20:48.794Z,19.42
2018-01-25T22:23:16.433Z,29.12
2018-01-25T22:25:44.094Z,26.73
2018-01-25T22:28:11.739Z,26.80
2018-01-25T22:30:40.184Z,27.15
2018-01-25T22:33:07.824Z,30.30
2018-01-25T22:35:35.468Z,26.37
2018-01-25T22:38:03.115Z,23.95
2018-01-25T22:40:30.786Z,23.55
2018-01-25T22:42:58.395Z,23.98
2018-01-25T22:45:26.076Z,24.25
2018-01-25T22:47:55.729Z,19.80
2018-01-25T22:50:23.442Z,16.58
2018-01-25T22:52:51.079Z,24.70
2018-01-25T22:55:18.690Z,28.40
2018-01-25T22:57:47.099Z,21.83
2018-01-25T23:00:26.519Z,19.10
2018-01-25T23:02:54.147Z,15.38
2018-01-25T23:05:21.770Z,18.48
2018-01-25T23:07:49.408Z,20.23
2018-01-25T23:10:17.821Z,20.25
2018-01-25T23:12:45.467Z,18.33
2018-01-25T23:15:13.046Z,16.77
2018-01-25T23:17:40.657Z,17.62
2018-01-25T23:20:09.051Z,16.20
2018-01-25T23:22:36.672Z,19.00
2018-01-25T23:25:04.322Z,18.30
2018-01-25T23:27:31.946Z,16.50
2018-01-25T23:29:59.603Z,17.70
2018-01-25T23:32:27.243Z,19.05
2018-01-25T23:34:55.661Z,22.77
2018-01-25T23:37:23.256Z,33.03
2018-01-25T23:39:50.879Z,24.35
2018-01-25T23:42:18.504Z,23.27
2018-01-25T23:44:46.884Z,13.73
2018-01-25T23:47:15.315Z,16.58
2018-01-25T23:49:42.878Z,16.87
2018-01-25T23:52:10.504Z,17.70
2018-01-25T23:54:38.101Z,15.38
2018-01-25T23:57:05.727Z,15.18
2018-01-25T23:59:33.323Z,14.57
